createdAt,value
2018-04-10T00:00:58.275Z,31.97
2018-04-10T00:03:27.663Z,30.83
2018-04-10T00:05:56.263Z,31.13
2018-04-10T00:08:25.651Z,28.97
2018-04-10T00:10:54.102Z,33.37
2018-04-10T00:13:22.418Z,33.90
2018-04-10T00:15:51.555Z,29.20
2018-04-10T00:18:19.942Z,34.27
2018-04-10T00:20:48.526Z,36.50
2018-04-10T00:23:17.147Z,31.43
2018-04-10T00:25:46.026Z,35.63
2018-04-10T00:28:14.415Z,38.07
2018-04-10T00:30:42.684Z,33.97
2018-04-10T00:33:11.005Z,35.60
2018-04-10T00:35:40.200Z,36.73
2018-04-10T00:38:09.381Z,35.67
2018-04-10T00:40:38.401Z,34.87
2018-04-10T00:43:06.860Z,35.47
2018-04-10T00:45:35.887Z,37.17
2018-04-10T00:48:04.307Z,36.03
2018-04-10T00:50:32.586Z,42.00
2018-04-10T00:53:14.525Z,35.57
2018-04-10T00:55:43.743Z,38.20
2018-04-10T00:58:12.218Z,35.43
2018-04-10T01:00:40.704Z,33.67
2018-04-10T01:03:09.160Z,33.33
2018-04-10T01:05:38.322Z,36.50
2018-04-10T01:08:06.619Z,36.57
2018-04-10T01:10:34.897Z,34.73
2018-04-10T01:13:03.231Z,35.83
2018-04-10T01:15:31.563Z,36.13
2018-04-10T01:18:00.537Z,37.50
2018-04-10T01:20:30.219Z,38.77
2018-04-10T01:22:58.494Z,37.57
2018-04-10T01:25:26.990Z,39.73
2018-04-10T01:27:55.516Z,34.80
2018-04-10T01:30:24.540Z,38.17
2018-04-10T01:32:53.171Z,42.07
2018-04-10T01:35:21.583Z,35.87
2018-04-10T01:37:49.931Z,37.10
2018-04-10T01:40:18.237Z,35.67
2018-04-10T01:42:46.686Z,37.37
2018-04-10T01:45:14.959Z,36.17
2018-04-10T01:47:43.258Z,35.57
2018-04-10T01:50:12.641Z,36.47
2018-04-10T01:52:40.950Z,35.57
2018-04-10T01:55:09.310Z,39.20
2018-04-10T01:57:38.514Z,37.27
2018-04-10T02:00:07.519Z,38.50
2018-04-10T02:02:36.930Z,38.40
2018-04-10T02:05:05.527Z,34.93
2018-04-10T02:07:34.089Z,39.70
2018-04-10T02:10:03.143Z,38.33
2018-04-10T02:12:31.394Z,41.93
2018-04-10T02:14:59.634Z,34.03
2018-04-10T02:17:51.952Z,34.83
2018-04-10T02:20:20.618Z,40.57
2018-04-10T02:22:48.833Z,35.53
2018-04-10T02:25:18.036Z,33.10
2018-04-10T02:27:47.290Z,38.50
2018-04-10T02:30:15.668Z,36.33
2018-04-10T02:32:44.047Z,37.90
2018-04-10T02:35:12.292Z,39.90
2018-04-10T02:37:40.567Z,43.17
2018-04-10T02:40:08.822Z,44.17
2018-04-10T02:42:38.058Z,36.97
2018-04-10T02:45:06.317Z,38.97
2018-04-10T02:47:35.056Z,38.17
2018-04-10T02:50:03.659Z,34.33
2018-04-10T02:52:32.624Z,35.90
2018-04-10T02:55:01.012Z,34.50
2018-04-10T02:57:29.490Z,37.30
2018-04-10T02:59:57.760Z,38.33
2018-04-10T03:02:26.033Z,36.03
2018-04-10T03:04:54.276Z,37.33
2018-04-10T03:07:22.900Z,39.17
2018-04-10T03:09:51.126Z,37.70
2018-04-10T03:12:19.652Z,41.10
2018-04-10T03:14:47.915Z,42.93
2018-04-10T03:17:16.202Z,41.60
2018-04-10T03:19:44.437Z,37.83
2018-04-10T03:22:12.812Z,40.37
2018-04-10T03:24:41.836Z,40.60
2018-04-10T03:27:10.108Z,37.67
2018-04-10T03:29:38.577Z,39.40
2018-04-10T03:32:07.108Z,45.17
2018-04-10T03:34:35.357Z,37.07
2018-04-10T03:37:03.766Z,39.73
2018-04-10T03:39:32.160Z,37.43
2018-04-10T03:42:00.388Z,36.87
2018-04-10T03:44:28.637Z,39.43
2018-04-10T03:46:56.882Z,35.30
2018-04-10T03:49:25.333Z,35.07
2018-04-10T03:51:53.670Z,37.30
2018-04-10T03:54:22.305Z,37.90
2018-04-10T03:56:50.605Z,35.23
2018-04-10T03:59:19.026Z,37.10
2018-04-10T04:01:47.634Z,37.40
2018-04-10T04:04:16.322Z,35.77
2018-04-10T04:06:44.594Z,38.63
2018-04-10T04:09:13.222Z,38.83
2018-04-10T04:11:42.523Z,34.63
2018-04-10T04:14:10.970Z,38.93
2018-04-10T04:17:42.461Z,37.90
2018-04-10T04:21:26.432Z,38.07
2018-04-10T04:23:55.469Z,35.23
2018-04-10T04:26:23.833Z,35.53
2018-04-10T04:28:52.510Z,34.57
2018-04-10T04:31:20.873Z,36.37
2018-04-10T04:33:50.111Z,37.27
2018-04-10T04:36:18.441Z,32.80
2018-04-10T04:38:46.912Z,33.97
2018-04-10T04:41:16.298Z,32.70
2018-04-10T04:43:44.973Z,35.10
2018-04-10T04:46:13.541Z,38.53
2018-04-10T04:48:42.125Z,36.30
2018-04-10T04:51:10.547Z,33.50
2018-04-10T04:53:39.933Z,33.33
2018-04-10T04:56:08.475Z,33.20
2018-04-10T04:58:36.935Z,38.63
2018-04-10T05:01:05.982Z,34.87
2018-04-10T05:03:34.430Z,35.60
2018-04-10T05:06:02.785Z,30.90
2018-04-10T05:08:31.141Z,35.30
2018-04-10T05:10:59.697Z,33.43
2018-04-10T05:13:28.178Z,33.53
2018-04-10T05:15:56.501Z,32.57
2018-04-10T05:18:25.590Z,34.80
2018-04-10T05:20:54.836Z,30.20
2018-04-10T05:23:23.317Z,30.67
2018-04-10T05:25:51.804Z,32.80
2018-04-10T05:28:20.370Z,38.13
2018-04-10T05:30:48.739Z,34.30
2018-04-10T05:33:17.265Z,34.93
2018-04-10T05:35:45.579Z,29.47
2018-04-10T05:38:16.426Z,35.77
2018-04-10T05:40:45.934Z,29.00
2018-04-10T05:43:15.010Z,27.70
2018-04-10T05:45:44.040Z,33.13
2018-04-10T05:48:12.302Z,33.47
2018-04-10T05:50:40.762Z,29.33
2018-04-10T05:53:09.106Z,29.80
2018-04-10T05:55:37.434Z,28.30
2018-04-10T05:58:06.844Z,28.93
2018-04-10T06:00:36.062Z,28.10
2018-04-10T06:03:04.450Z,27.73
2018-04-10T06:05:33.052Z,32.10
2018-04-10T06:08:01.516Z,29.03
2018-04-10T06:10:30.210Z,30.70
2018-04-10T06:13:05.109Z,27.77
2018-04-10T06:15:33.401Z,29.67
2018-04-10T06:18:02.032Z,28.03
2018-04-10T06:20:30.390Z,28.77
2018-04-10T06:22:58.763Z,27.40
2018-04-10T06:25:27.090Z,31.50
2018-04-10T06:27:56.466Z,29.43
2018-04-10T06:30:24.937Z,29.97
2018-04-10T06:32:53.797Z,29.53
2018-04-10T06:35:22.569Z,27.43
2018-04-10T06:37:51.199Z,25.50
2018-04-10T06:40:19.851Z,27.47
2018-04-10T06:42:48.458Z,25.27
2018-04-10T06:45:16.889Z,27.93
2018-04-10T06:47:46.352Z,27.07
2018-04-10T06:50:15.693Z,27.40
2018-04-10T06:52:44.703Z,27.60
2018-04-10T06:55:13.046Z,26.07
2018-04-10T06:57:41.614Z,30.63
2018-04-10T07:00:09.930Z,27.10
2018-04-10T07:02:39.083Z,23.63
2018-04-10T07:05:07.696Z,24.43
2018-04-10T07:07:36.022Z,23.57
2018-04-10T07:10:04.379Z,25.03
2018-04-10T07:12:33.702Z,20.33
2018-04-10T07:15:02.226Z,24.43
2018-04-10T07:17:30.605Z,22.13
2018-04-10T07:19:59.274Z,23.80
2018-04-10T07:22:27.586Z,20.83
2018-04-10T07:24:57.039Z,21.80
2018-04-10T07:27:25.315Z,18.77
2018-04-10T07:29:53.765Z,18.33
2018-04-10T07:32:22.777Z,18.87
2018-04-10T07:34:51.102Z,19.23
2018-04-10T07:37:19.656Z,15.67
2018-04-10T07:39:48.089Z,17.83
2018-04-10T07:42:17.381Z,11.60
2018-04-10T07:44:45.645Z,13.47
2018-04-10T07:47:14.227Z,12.97
2018-04-10T07:49:42.682Z,13.13
2018-04-10T07:52:11.044Z,14.70
2018-04-10T07:54:39.566Z,16.13
2018-04-10T07:57:07.870Z,10.33
2018-04-10T07:59:36.946Z,10.37
2018-04-10T08:02:05.221Z,10.23
2018-04-10T08:04:33.623Z,13.03
2018-04-10T08:07:02.721Z,8.63
2018-04-10T08:09:31.787Z,10.07
2018-04-10T08:12:00.298Z,8.50
2018-04-10T08:14:29.338Z,7.93
2018-04-10T08:16:57.659Z,11.00
2018-04-10T08:19:26.111Z,9.13
2018-04-10T08:21:54.385Z,11.33
2018-04-10T08:24:24.704Z,8.23
2018-04-10T08:26:52.966Z,10.37
2018-04-10T08:29:21.275Z,6.93
2018-04-10T08:31:56.574Z,5.73
2018-04-10T08:34:25.012Z,7.47
2018-04-10T08:36:53.315Z,8.33
2018-04-10T08:39:22.328Z,7.20
2018-04-10T08:41:50.611Z,6.17
2018-04-10T08:44:18.903Z,7.13
2018-04-10T08:46:47.266Z,7.70
2018-04-10T08:49:15.995Z,6.50
2018-04-10T08:51:44.425Z,9.70
2018-04-10T08:54:13.008Z,9.40
2018-04-10T08:56:41.490Z,8.73
2018-04-10T08:59:09.870Z,6.60
2018-04-10T09:01:38.377Z,8.73
2018-04-10T09:04:07.059Z,6.07
2018-04-10T09:06:35.555Z,9.13
2018-04-10T09:09:05.485Z,8.33
2018-04-10T09:11:33.915Z,9.37
2018-04-10T09:14:02.271Z,9.97
2018-04-10T09:16:31.472Z,6.73
2018-04-10T09:19:00.507Z,11.63
2018-04-10T09:21:28.947Z,11.23
2018-04-10T09:23:58.346Z,18.83
2018-04-10T09:26:27.562Z,8.57
2018-04-10T09:28:55.955Z,7.87
2018-04-10T09:31:24.414Z,9.57
2018-04-10T09:33:53.002Z,9.30
2018-04-10T09:36:21.584Z,12.23
2018-04-10T09:38:49.859Z,10.90
2018-04-10T09:41:18.406Z,8.83
2018-04-10T09:43:46.800Z,9.83
2018-04-10T09:46:15.214Z,12.10
2018-04-10T09:48:43.685Z,9.17
2018-04-10T09:51:12.378Z,6.70
2018-04-10T09:53:41.165Z,6.93
2018-04-10T09:56:09.555Z,6.50
2018-04-10T09:58:37.904Z,9.13
2018-04-10T10:01:06.937Z,7.97
2018-04-10T10:03:35.731Z,10.13
2018-04-10T10:06:04.110Z,8.17
2018-04-10T10:08:32.541Z,7.17
2018-04-10T10:11:00.970Z,11.50
2018-04-10T10:13:29.216Z,11.03
2018-04-10T10:15:58.314Z,9.73
2018-04-10T10:18:26.610Z,9.93
2018-04-10T10:20:55.523Z,9.27
2018-04-10T10:23:24.321Z,9.17
2018-04-10T10:25:52.793Z,5.40
2018-04-10T10:28:21.092Z,6.80
2018-04-10T10:30:49.380Z,7.73
2018-04-10T10:33:17.717Z,9.30
2018-04-10T10:35:46.152Z,5.40
2018-04-10T10:38:15.659Z,8.17
2018-04-10T10:40:44.945Z,10.10
2018-04-10T10:43:13.333Z,9.60
2018-04-10T10:45:42.837Z,7.90
2018-04-10T10:48:12.002Z,6.80
2018-04-10T10:50:40.566Z,8.57
2018-04-10T10:53:08.878Z,11.07
2018-04-10T10:55:37.323Z,12.37
2018-04-10T10:58:05.787Z,6.63
2018-04-10T11:00:34.225Z,9.13
2018-04-10T11:03:02.541Z,7.83
2018-04-10T11:05:30.957Z,8.93
2018-04-10T11:07:59.240Z,4.97
2018-04-10T11:10:27.614Z,6.97
2018-04-10T11:12:55.971Z,5.37
2018-04-10T11:15:24.316Z,5.50
2018-04-10T11:17:53.482Z,9.60
2018-04-10T11:20:22.455Z,7.07
2018-04-10T11:22:51.066Z,6.47
2018-04-10T11:25:19.365Z,7.57
2018-04-10T11:27:48.491Z,8.33
2018-04-10T11:30:17.277Z,6.87
2018-04-10T11:32:45.549Z,12.37
2018-04-10T11:35:14.201Z,7.33
2018-04-10T11:37:42.805Z,6.17
2018-04-10T11:40:11.926Z,6.67
2018-04-10T11:42:40.423Z,5.60
2018-04-10T11:45:08.932Z,7.43
2018-04-10T11:47:37.602Z,6.93
2018-04-10T11:50:06.249Z,9.67
2018-04-10T11:52:35.359Z,10.83
2018-04-10T11:55:03.925Z,9.00
2018-04-10T11:57:33.622Z,7.67
2018-04-10T12:00:02.770Z,4.53
2018-04-10T12:02:31.231Z,7.27
2018-04-10T12:04:59.609Z,6.20
2018-04-10T12:07:28.811Z,7.57
2018-04-10T12:09:57.196Z,8.53
2018-04-10T12:12:25.678Z,11.43
2018-04-10T12:14:54.037Z,12.60
2018-04-10T12:17:22.423Z,6.93
2018-04-10T12:19:51.070Z,5.20
2018-04-10T12:22:19.366Z,9.87
2018-04-10T12:24:48.526Z,6.03
2018-04-10T12:27:17.046Z,9.53
2018-04-10T12:29:46.311Z,6.83
2018-04-10T12:32:14.884Z,10.83
2018-04-10T12:34:43.259Z,8.77
2018-04-10T12:37:11.653Z,8.13
2018-04-10T12:39:40.513Z,7.67
2018-04-10T12:42:08.843Z,5.20
2018-04-10T12:44:38.612Z,6.63
2018-04-10T12:47:07.273Z,8.57
2018-04-10T12:49:35.766Z,7.73
2018-04-10T12:52:04.273Z,9.83
2018-04-10T12:54:32.876Z,8.00
2018-04-10T12:57:01.194Z,6.97
2018-04-10T12:59:29.577Z,8.17
2018-04-10T13:01:58.011Z,7.40
2018-04-10T13:04:26.811Z,7.97
2018-04-10T13:06:55.365Z,9.17
2018-04-10T13:09:23.906Z,7.27
2018-04-10T13:11:52.231Z,9.87
2018-04-10T13:14:20.857Z,6.47
2018-04-10T13:16:50.346Z,8.70
2018-04-10T13:19:18.643Z,10.20
2018-04-10T13:21:47.887Z,9.53
2018-04-10T13:24:17.165Z,9.23
2018-04-10T13:26:45.557Z,10.23
2018-04-10T13:29:14.191Z,6.73
2018-04-10T13:31:42.583Z,8.03
2018-04-10T13:34:11.862Z,10.83
2018-04-10T13:36:40.477Z,6.73
2018-04-10T13:39:09.606Z,6.00
2018-04-10T13:41:38.023Z,7.60
2018-04-10T13:44:06.602Z,6.30
2018-04-10T13:46:34.863Z,10.13
2018-04-10T13:49:03.150Z,6.80
2018-04-10T13:51:31.829Z,9.27
2018-04-10T13:54:01.067Z,6.47
2018-04-10T13:56:29.611Z,10.13
2018-04-10T13:58:57.946Z,8.23
2018-04-10T14:01:26.466Z,9.43
2018-04-10T14:03:54.958Z,12.33
2018-04-10T14:06:23.406Z,6.40
2018-04-10T14:08:52.501Z,6.27
2018-04-10T14:11:20.789Z,9.73
2018-04-10T14:13:49.844Z,12.73
2018-04-10T14:16:18.146Z,10.73
2018-04-10T14:18:46.437Z,11.77
2018-04-10T14:21:15.026Z,14.10
2018-04-10T14:23:45.105Z,12.73
2018-04-10T14:26:13.474Z,15.97
2018-04-10T14:28:41.965Z,21.30
2018-04-10T14:31:10.358Z,11.50
2018-04-10T14:33:45.392Z,12.57
2018-04-10T14:36:13.839Z,19.57
2018-04-10T14:38:42.222Z,18.87
2018-04-10T14:41:10.590Z,16.43
2018-04-10T14:43:39.044Z,13.33
2018-04-10T14:46:07.401Z,14.23
2018-04-10T14:48:36.598Z,13.17
2018-04-10T14:51:05.950Z,15.77
2018-04-10T14:53:34.531Z,15.00
2018-04-10T14:56:03.149Z,15.17
2018-04-10T14:58:31.661Z,12.53
2018-04-10T15:01:00.801Z,14.10
2018-04-10T15:03:29.114Z,10.90
2018-04-10T15:05:57.590Z,11.10
2018-04-10T15:08:25.957Z,15.63
2018-04-10T15:10:54.297Z,18.70
2018-04-10T15:13:22.675Z,14.10
2018-04-10T15:15:51.063Z,18.40
2018-04-10T15:18:19.691Z,13.50
2018-04-10T15:20:48.081Z,14.03
2018-04-10T15:23:17.325Z,14.03
2018-04-10T15:25:46.040Z,9.63
2018-04-10T15:28:15.583Z,12.83
2018-04-10T15:30:43.990Z,13.90
2018-04-10T15:33:12.497Z,10.53
2018-04-10T15:35:40.881Z,16.37
2018-04-10T15:38:09.276Z,13.47
2018-04-10T15:40:37.668Z,10.63
2018-04-10T15:43:06.906Z,11.20
2018-04-10T15:45:35.435Z,12.80
2018-04-10T15:48:04.079Z,11.77
2018-04-10T15:50:32.637Z,12.93
2018-04-10T15:53:01.005Z,15.40
2018-04-10T15:55:30.102Z,13.30
2018-04-10T15:57:59.341Z,15.27
2018-04-10T16:00:27.671Z,13.00
2018-04-10T16:02:57.041Z,16.00
2018-04-10T16:05:25.513Z,15.03
2018-04-10T16:07:53.897Z,17.80
2018-04-10T16:10:22.740Z,14.47
2018-04-10T16:12:51.401Z,16.93
2018-04-10T16:15:19.785Z,16.03
2018-04-10T16:17:49.039Z,20.53
2018-04-10T16:20:17.421Z,18.67
2018-04-10T16:22:46.017Z,21.00
2018-04-10T16:25:14.827Z,16.63
2018-04-10T16:27:43.961Z,16.30
2018-04-10T16:30:12.298Z,16.13
2018-04-10T16:32:41.519Z,16.33
2018-04-10T16:35:10.103Z,15.17
2018-04-10T16:37:38.617Z,15.73
2018-04-10T16:40:07.841Z,16.20
2018-04-10T16:42:36.258Z,17.37
2018-04-10T16:45:04.699Z,14.30
2018-04-10T16:47:33.333Z,15.30
2018-04-10T16:50:01.810Z,15.50
2018-04-10T16:52:30.425Z,19.00
2018-04-10T16:54:59.644Z,17.43
2018-04-10T16:57:28.553Z,15.30
2018-04-10T16:59:59.280Z,15.87
2018-04-10T17:02:29.942Z,18.37
2018-04-10T17:05:01.209Z,14.90
2018-04-10T17:07:35.426Z,17.10
2018-04-10T17:10:14.576Z,20.57
2018-04-10T17:12:44.265Z,17.67
2018-04-10T17:15:12.941Z,18.80
2018-04-10T17:17:41.446Z,22.83
2018-04-10T17:20:09.993Z,21.47
2018-04-10T17:22:40.092Z,20.50
2018-04-10T17:25:11.113Z,17.23
2018-04-10T17:27:39.569Z,20.37
2018-04-10T17:30:08.565Z,34.77
2018-04-10T17:32:37.022Z,22.43
2018-04-10T17:35:05.450Z,22.27
2018-04-10T17:37:33.971Z,22.87
2018-04-10T17:40:10.600Z,19.17
2018-04-10T17:42:40.546Z,16.67
2018-04-10T17:45:10.704Z,25.53
2018-04-10T17:47:39.808Z,23.93
2018-04-10T17:50:08.258Z,22.87
2018-04-10T17:52:37.113Z,25.20
2018-04-10T17:55:12.778Z,26.50
2018-04-10T17:57:41.199Z,25.10
2018-04-10T18:00:10.332Z,27.83
2018-04-10T18:02:39.071Z,30.63
2018-04-10T18:05:07.676Z,26.23
2018-04-10T18:07:37.306Z,26.80
2018-04-10T18:10:06.166Z,27.27
2018-04-10T18:12:34.523Z,32.37
2018-04-10T18:15:03.100Z,27.40
2018-04-10T18:17:33.561Z,36.33
2018-04-10T18:20:02.017Z,31.10
2018-04-10T18:22:31.172Z,26.97
2018-04-10T18:25:01.109Z,30.40
2018-04-10T18:27:29.508Z,29.23
2018-04-10T18:29:58.305Z,31.67
2018-04-10T18:32:26.753Z,29.90
2018-04-10T18:34:55.161Z,29.63
2018-04-10T18:37:23.742Z,34.03
2018-04-10T18:39:52.234Z,32.17
2018-04-10T18:42:20.789Z,36.00
2018-04-10T18:44:49.241Z,33.33
2018-04-10T18:47:17.628Z,36.33
2018-04-10T18:49:46.027Z,32.70
2018-04-10T18:52:14.368Z,36.83
2018-04-10T18:54:42.765Z,33.60
2018-04-10T18:57:12.133Z,36.63
2018-04-10T18:59:40.747Z,42.77
2018-04-10T19:02:09.911Z,40.83
2018-04-10T19:04:38.369Z,36.43
2018-04-10T19:07:06.893Z,33.60
2018-04-10T19:09:36.244Z,36.17
2018-04-10T19:12:04.770Z,34.50
2018-04-10T19:14:33.525Z,35.57
2018-04-10T19:17:01.950Z,32.60
2018-04-10T19:19:30.450Z,34.90
2018-04-10T19:21:59.019Z,34.33
2018-04-10T19:24:28.304Z,30.40
2018-04-10T19:26:56.763Z,27.10
2018-04-10T19:29:25.187Z,24.43
2018-04-10T19:31:53.643Z,26.10
2018-04-10T19:34:22.074Z,24.20
2018-04-10T19:36:50.487Z,25.20
2018-04-10T19:39:18.911Z,25.97
2018-04-10T19:41:48.135Z,25.87
2018-04-10T19:44:16.530Z,34.40
2018-04-10T19:46:44.880Z,34.70
2018-04-10T19:49:13.316Z,35.70
2018-04-10T19:51:41.814Z,35.73
2018-04-10T19:54:11.175Z,36.33
2018-04-10T19:56:39.539Z,34.27
2018-04-10T19:59:07.960Z,37.07
2018-04-10T20:01:36.637Z,38.10
2018-04-10T20:04:05.411Z,35.53
2018-04-10T20:06:34.360Z,30.10
2018-04-10T20:09:03.484Z,32.37
2018-04-10T20:11:32.112Z,31.63
2018-04-10T20:14:00.737Z,27.60
2018-04-10T20:16:29.524Z,26.73
2018-04-10T20:18:58.145Z,27.77
2018-04-10T20:21:26.729Z,30.97
2018-04-10T20:23:55.216Z,27.53
2018-04-10T20:26:30.389Z,31.10
2018-04-10T20:28:58.885Z,29.17
2018-04-10T20:31:27.461Z,30.63
2018-04-10T20:33:56.683Z,33.23
2018-04-10T20:36:25.262Z,32.20
2018-04-10T20:38:53.813Z,34.83
2018-04-10T20:41:23.079Z,36.57
2018-04-10T20:43:51.752Z,37.00
2018-04-10T20:46:20.218Z,32.57
2018-04-10T20:48:48.763Z,29.73
2018-04-10T20:51:18.078Z,31.73
2018-04-10T20:53:46.579Z,30.03
2018-04-10T20:56:15.095Z,24.50
2018-04-10T20:58:43.677Z,26.10
2018-04-10T21:01:12.257Z,27.77
2018-04-10T21:03:40.982Z,28.80
2018-04-10T21:06:10.109Z,27.63
2018-04-10T21:08:38.614Z,23.73
2018-04-10T21:11:07.150Z,27.20
2018-04-10T21:13:35.738Z,22.33
2018-04-10T21:16:04.387Z,26.43
2018-04-10T21:18:32.846Z,22.43
2018-04-10T21:21:01.443Z,21.77
2018-04-10T21:23:29.919Z,22.50
2018-04-10T21:25:58.396Z,24.67
2018-04-10T21:28:26.885Z,31.47
2018-04-10T21:30:55.394Z,28.00
2018-04-10T21:33:24.602Z,28.00
2018-04-10T21:35:53.808Z,26.83
2018-04-10T21:38:22.257Z,32.80
2018-04-10T21:40:51.597Z,29.00
2018-04-10T21:43:24.732Z,27.77
2018-04-10T21:46:00.192Z,23.37
2018-04-10T21:48:28.743Z,22.00
2018-04-10T21:50:57.222Z,21.73
2018-04-10T21:53:25.833Z,23.47
2018-04-10T21:55:54.348Z,20.83
2018-04-10T21:58:22.815Z,22.40
2018-04-10T22:00:52.075Z,21.90
2018-04-10T22:03:20.505Z,23.87
2018-04-10T22:05:49.311Z,22.10
2018-04-10T22:08:18.009Z,21.87
2018-04-10T22:10:46.454Z,22.20
2018-04-10T22:13:15.596Z,27.27
2018-04-10T22:15:43.973Z,23.33
2018-04-10T22:18:12.464Z,24.37
2018-04-10T22:20:40.855Z,22.07
2018-04-10T22:23:09.406Z,23.33
2018-04-10T22:25:37.878Z,36.00
2018-04-10T22:28:06.329Z,32.33
2018-04-10T22:30:34.719Z,32.27
2018-04-10T22:33:03.105Z,26.27
2018-04-10T22:35:31.571Z,33.97
2018-04-10T22:38:00.024Z,28.13
2018-04-10T22:40:29.195Z,30.00
2018-04-10T22:42:57.669Z,30.30
2018-04-10T22:45:26.070Z,29.53
2018-04-10T22:47:55.159Z,25.63
2018-04-10T22:50:23.550Z,24.00
2018-04-10T22:52:51.920Z,26.27
2018-04-10T22:55:21.131Z,22.83
2018-04-10T22:57:50.518Z,20.50
2018-04-10T23:00:19.189Z,21.37
2018-04-10T23:02:47.607Z,20.80
2018-04-10T23:05:16.023Z,22.07
2018-04-10T23:07:44.425Z,22.17
2018-04-10T23:10:12.786Z,21.17
2018-04-10T23:12:41.168Z,19.17
2018-04-10T23:15:09.902Z,19.53
2018-04-10T23:17:39.023Z,17.73
2018-04-10T23:20:07.425Z,16.30
2018-04-10T23:22:35.894Z,16.47
2018-04-10T23:25:04.391Z,15.00
2018-04-10T23:27:32.999Z,14.27
2018-04-10T23:30:01.368Z,14.17
2018-04-10T23:32:29.938Z,13.33
2018-04-10T23:34:58.367Z,13.50
2018-04-10T23:37:26.736Z,12.47
2018-04-10T23:39:55.346Z,11.50
2018-04-10T23:42:24.508Z,10.67
2018-04-10T23:44:53.049Z,10.63
2018-04-10T23:47:21.523Z,10.40
2018-04-10T23:49:50.644Z,11.83
2018-04-10T23:52:18.963Z,9.53
2018-04-10T23:54:47.551Z,9.40
2018-04-10T23:57:16.019Z,9.33
2018-04-10T23:59:44.395Z,8.90
